createdAt,value
2017-08-26T00:00:53.935Z,69.81
2017-08-26T00:03:21.389Z,69.82
2017-08-26T00:05:48.560Z,69.83
2017-08-26T00:08:15.935Z,69.80
2017-08-26T00:10:43.139Z,69.81
2017-08-26T00:13:11.577Z,69.81
2017-08-26T00:15:38.749Z,69.81
2017-08-26T00:18:06.444Z,69.79
2017-08-26T00:20:33.617Z,69.79
2017-08-26T00:23:03.026Z,69.79
2017-08-26T00:25:30.372Z,69.79
2017-08-26T00:27:57.801Z,69.79
2017-08-26T00:30:24.992Z,69.78
2017-08-26T00:32:52.407Z,69.79
2017-08-26T00:35:19.929Z,69.80
2017-08-26T00:37:47.271Z,69.81
2017-08-26T00:40:14.785Z,69.84
2017-08-26T00:42:42.032Z,69.83
2017-08-26T00:45:09.245Z,69.85
2017-08-26T00:47:36.434Z,69.85
2017-08-26T00:50:03.624Z,69.80
2017-08-26T00:52:31.152Z,69.83
2017-08-26T00:54:58.600Z,69.84
2017-08-26T00:57:26.059Z,69.83
2017-08-26T00:59:53.244Z,69.81
2017-08-26T01:02:20.420Z,69.84
2017-08-26T01:04:47.586Z,69.84
2017-08-26T01:07:20.557Z,69.85
2017-08-26T01:09:48.077Z,69.82
2017-08-26T01:12:15.245Z,69.83
2017-08-26T01:14:42.556Z,69.87
2017-08-26T01:17:09.729Z,69.88
2017-08-26T01:19:36.915Z,69.89
2017-08-26T01:22:04.632Z,69.89
2017-08-26T01:24:31.820Z,69.89
2017-08-26T01:26:59.340Z,69.91
2017-08-26T01:29:26.517Z,69.91
2017-08-26T01:31:54.738Z,69.89
2017-08-26T01:34:22.220Z,69.90
2017-08-26T01:36:49.871Z,69.91
2017-08-26T01:39:17.444Z,69.89
2017-08-26T01:41:44.904Z,69.90
2017-08-26T01:44:12.613Z,69.90
2017-08-26T01:46:39.809Z,69.89
2017-08-26T01:49:07.344Z,69.91
2017-08-26T01:51:34.852Z,69.87
2017-08-26T01:54:02.036Z,69.92
2017-08-26T01:56:29.328Z,69.91
2017-08-26T01:58:56.854Z,69.92
2017-08-26T02:01:24.344Z,69.91
2017-08-26T02:03:51.533Z,69.92
2017-08-26T02:06:18.704Z,69.92
2017-08-26T02:08:46.075Z,69.95
2017-08-26T02:11:13.571Z,69.93
2017-08-26T02:13:41.233Z,69.92
2017-08-26T02:16:08.753Z,69.92
2017-08-26T02:18:36.246Z,69.90
2017-08-26T02:21:03.789Z,69.91
2017-08-26T02:23:31.056Z,69.92
2017-08-26T02:25:58.507Z,69.90
2017-08-26T02:28:26.041Z,69.92
2017-08-26T02:30:53.252Z,69.95
2017-08-26T02:33:20.571Z,69.93
2017-08-26T02:35:48.032Z,69.89
2017-08-26T02:38:15.488Z,69.89
2017-08-26T02:40:42.937Z,69.90
2017-08-26T02:43:10.121Z,69.93
2017-08-26T02:45:37.290Z,69.90
2017-08-26T02:48:04.698Z,69.94
2017-08-26T02:50:31.869Z,69.93
2017-08-26T02:52:59.423Z,69.96
2017-08-26T02:55:26.608Z,69.97
2017-08-26T02:57:53.774Z,69.95
2017-08-26T03:00:20.941Z,69.91
2017-08-26T03:02:48.109Z,69.93
2017-08-26T03:05:15.292Z,69.89
2017-08-26T03:07:42.898Z,69.90
2017-08-26T03:10:10.069Z,69.91
2017-08-26T03:12:37.749Z,69.95
2017-08-26T03:15:05.198Z,69.93
2017-08-26T03:17:32.385Z,69.96
2017-08-26T03:19:59.553Z,69.93
2017-08-26T03:22:26.721Z,69.95
2017-08-26T03:24:53.889Z,69.94
2017-08-26T03:27:21.071Z,69.95
2017-08-26T03:29:48.405Z,69.93
2017-08-26T03:32:15.593Z,69.91
2017-08-26T03:34:43.326Z,69.91
2017-08-26T03:37:10.502Z,69.92
2017-08-26T03:39:37.684Z,69.91
2017-08-26T03:42:04.873Z,69.93
2017-08-26T03:44:32.222Z,69.94
2017-08-26T03:46:59.685Z,69.95
2017-08-26T03:49:27.147Z,69.91
2017-08-26T03:51:54.314Z,69.90
2017-08-26T03:54:21.747Z,69.91
2017-08-26T03:56:48.913Z,69.94
2017-08-26T03:59:16.353Z,69.92
2017-08-26T04:01:44.012Z,69.94
2017-08-26T04:04:11.585Z,69.93
2017-08-26T04:06:38.761Z,69.92
2017-08-26T04:09:06.291Z,69.90
2017-08-26T04:11:33.530Z,69.93
2017-08-26T04:14:01.106Z,69.93
2017-08-26T04:16:28.281Z,69.91
2017-08-26T04:18:56.022Z,69.92
2017-08-26T04:21:23.192Z,69.89
2017-08-26T04:23:50.720Z,69.93
2017-08-26T04:26:17.908Z,69.93
2017-08-26T04:28:45.255Z,69.96
2017-08-26T04:31:12.750Z,69.96
2017-08-26T04:33:39.937Z,69.94
2017-08-26T04:36:07.105Z,69.91
2017-08-26T04:38:34.273Z,69.91
2017-08-26T04:41:01.593Z,69.93
2017-08-26T04:43:28.777Z,69.96
2017-08-26T04:45:56.195Z,69.98
2017-08-26T04:48:23.658Z,69.98
2017-08-26T04:50:51.106Z,69.97
2017-08-26T04:53:18.277Z,69.99
2017-08-26T04:55:45.747Z,69.98
2017-08-26T04:58:13.490Z,69.99
2017-08-26T05:00:41.135Z,69.97
2017-08-26T05:03:08.714Z,69.98
2017-08-26T05:05:35.900Z,69.97
2017-08-26T05:08:03.311Z,70.01
2017-08-26T05:10:30.490Z,69.98
2017-08-26T05:12:57.999Z,69.97
2017-08-26T05:15:25.491Z,69.96
2017-08-26T05:17:52.959Z,70.02
2017-08-26T05:20:20.179Z,70.01
2017-08-26T05:22:47.369Z,69.99
2017-08-26T05:25:14.541Z,70.01
2017-08-26T05:27:41.724Z,69.99
2017-08-26T05:30:09.222Z,69.96
2017-08-26T05:32:36.420Z,69.98
2017-08-26T05:35:03.803Z,69.99
2017-08-26T05:37:31.270Z,69.99
2017-08-26T05:39:58.441Z,69.98
2017-08-26T05:42:25.652Z,69.96
2017-08-26T05:44:52.836Z,69.95
2017-08-26T05:47:20.013Z,69.96
2017-08-26T05:49:47.210Z,69.94
2017-08-26T05:52:14.456Z,69.94
2017-08-26T05:54:41.625Z,69.94
2017-08-26T05:57:09.080Z,69.94
2017-08-26T05:59:36.607Z,69.93
2017-08-26T06:02:03.992Z,69.93
2017-08-26T06:04:31.176Z,69.92
2017-08-26T06:06:58.605Z,69.91
2017-08-26T06:09:25.777Z,69.96
2017-08-26T06:11:52.963Z,71.31
2017-08-26T06:14:20.133Z,72.15
2017-08-26T06:16:47.302Z,72.79
2017-08-26T06:19:14.469Z,73.09
2017-08-26T06:21:42.021Z,73.68
2017-08-26T06:24:09.270Z,74.36
2017-08-26T06:26:36.446Z,74.46
2017-08-26T06:29:03.872Z,74.63
2017-08-26T06:31:31.514Z,74.48
2017-08-26T06:33:59.101Z,74.01
2017-08-26T06:36:26.558Z,73.92
2017-08-26T06:38:54.066Z,73.74
2017-08-26T06:41:21.475Z,74.35
2017-08-26T06:43:49.234Z,74.94
2017-08-26T06:46:16.404Z,75.37
2017-08-26T06:48:43.845Z,75.64
2017-08-26T06:51:11.293Z,76.08
2017-08-26T06:53:38.751Z,76.63
2017-08-26T06:56:05.922Z,75.27
2017-08-26T06:58:33.108Z,74.96
2017-08-26T07:01:00.292Z,74.60
2017-08-26T07:03:27.656Z,74.67
2017-08-26T07:05:55.121Z,74.65
2017-08-26T07:08:22.319Z,74.53
2017-08-26T07:10:49.724Z,74.20
2017-08-26T07:13:17.182Z,73.69
2017-08-26T07:15:44.954Z,73.30
2017-08-26T07:18:12.598Z,73.14
2017-08-26T07:20:39.783Z,73.00
2017-08-26T07:23:07.156Z,72.97
2017-08-26T07:25:34.677Z,72.84
2017-08-26T07:28:01.860Z,72.79
2017-08-26T07:30:29.136Z,72.72
2017-08-26T07:32:56.531Z,72.64
2017-08-26T07:35:23.715Z,72.58
2017-08-26T07:37:50.886Z,72.55
2017-08-26T07:40:18.284Z,72.49
2017-08-26T07:42:45.454Z,72.43
2017-08-26T07:45:12.967Z,72.40
2017-08-26T07:47:40.358Z,72.36
2017-08-26T07:50:08.003Z,72.32
2017-08-26T07:52:35.581Z,72.26
2017-08-26T07:55:02.759Z,72.21
2017-08-26T07:57:30.180Z,72.20
2017-08-26T07:59:57.363Z,72.16
2017-08-26T08:02:24.533Z,72.10
2017-08-26T08:04:51.701Z,72.06
2017-08-26T08:07:19.273Z,72.02
2017-08-26T08:09:46.446Z,71.98
2017-08-26T08:12:13.886Z,71.96
2017-08-26T08:14:41.159Z,71.91
2017-08-26T08:17:08.797Z,71.92
2017-08-26T08:19:36.065Z,71.93
2017-08-26T08:22:03.307Z,71.88
2017-08-26T08:24:30.495Z,71.83
2017-08-26T08:26:57.662Z,71.82
2017-08-26T08:29:24.845Z,71.77
2017-08-26T08:31:52.032Z,71.76
2017-08-26T08:34:19.215Z,71.81
2017-08-26T08:36:46.611Z,71.78
2017-08-26T08:39:13.783Z,71.74
2017-08-26T08:41:41.030Z,71.70
2017-08-26T08:44:08.205Z,71.65
2017-08-26T08:46:35.833Z,71.66
2017-08-26T08:49:03.410Z,71.61
2017-08-26T08:51:30.596Z,71.63
2017-08-26T08:53:58.186Z,71.60
2017-08-26T08:56:25.782Z,71.67
2017-08-26T08:58:53.546Z,72.22
2017-08-26T09:01:20.997Z,73.24
2017-08-26T09:03:48.658Z,73.89
2017-08-26T09:06:15.909Z,73.86
2017-08-26T09:08:43.093Z,73.71
2017-08-26T09:11:10.584Z,73.60
2017-08-26T09:13:37.753Z,73.54
2017-08-26T09:16:05.194Z,73.44
2017-08-26T09:18:32.579Z,73.26
2017-08-26T09:20:59.771Z,73.11
2017-08-26T09:23:27.197Z,72.97
2017-08-26T09:25:54.716Z,72.79
2017-08-26T09:28:22.092Z,72.74
2017-08-26T09:30:49.269Z,72.61
2017-08-26T09:33:16.820Z,72.53
2017-08-26T09:35:44.166Z,72.45
2017-08-26T09:38:11.346Z,72.39
2017-08-26T09:40:38.776Z,72.32
2017-08-26T09:43:06.222Z,72.29
2017-08-26T09:45:33.413Z,72.25
2017-08-26T09:48:00.603Z,72.19
2017-08-26T09:50:27.773Z,72.16
2017-08-26T09:52:55.140Z,72.13
2017-08-26T09:55:22.606Z,72.12
2017-08-26T09:57:50.058Z,72.09
2017-08-26T10:00:17.588Z,72.03
2017-08-26T10:02:44.757Z,72.00
2017-08-26T10:05:12.197Z,71.97
2017-08-26T10:07:39.381Z,71.99
2017-08-26T10:10:06.907Z,71.96
2017-08-26T10:12:34.498Z,71.95
2017-08-26T10:15:02.149Z,71.91
2017-08-26T10:17:29.405Z,71.85
2017-08-26T10:19:56.864Z,71.86
2017-08-26T10:22:24.310Z,71.85
2017-08-26T10:24:51.482Z,71.80
2017-08-26T10:27:18.833Z,71.80
2017-08-26T10:29:46.147Z,71.78
2017-08-26T10:32:13.645Z,71.74
2017-08-26T10:34:40.988Z,71.73
2017-08-26T10:37:08.250Z,71.73
2017-08-26T10:39:35.460Z,71.69
2017-08-26T10:42:02.935Z,71.68
2017-08-26T10:44:30.335Z,71.64
2017-08-26T10:46:57.544Z,71.63
2017-08-26T10:49:24.811Z,71.62
2017-08-26T10:51:52.584Z,71.60
2017-08-26T10:54:20.032Z,71.58
2017-08-26T10:56:47.489Z,71.60
2017-08-26T10:59:14.944Z,71.90
2017-08-26T11:01:42.406Z,71.99
2017-08-26T11:04:09.860Z,71.95
2017-08-26T11:06:37.439Z,72.02
2017-08-26T11:09:04.778Z,72.12
2017-08-26T11:11:32.238Z,72.21
2017-08-26T11:13:59.421Z,72.27
2017-08-26T11:16:26.839Z,72.19
2017-08-26T11:18:54.020Z,72.10
2017-08-26T11:21:21.207Z,71.99
2017-08-26T11:23:48.601Z,71.93
2017-08-26T11:26:15.769Z,71.91
2017-08-26T11:28:43.209Z,72.51
2017-08-26T11:31:10.382Z,72.39
2017-08-26T11:33:37.630Z,72.42
2017-08-26T11:36:05.149Z,72.44
2017-08-26T11:38:32.421Z,72.46
2017-08-26T11:40:59.933Z,72.37
2017-08-26T11:43:27.338Z,72.21
2017-08-26T11:45:54.526Z,72.15
2017-08-26T11:48:22.014Z,72.08
2017-08-26T11:50:49.389Z,72.00
2017-08-26T11:53:16.573Z,71.96
2017-08-26T11:55:43.750Z,71.92
2017-08-26T11:58:10.922Z,71.89
2017-08-26T12:00:38.501Z,71.87
2017-08-26T12:03:05.715Z,71.84
2017-08-26T12:05:32.899Z,71.85
2017-08-26T12:08:00.087Z,71.86
2017-08-26T12:10:27.474Z,71.82
2017-08-26T12:12:54.724Z,71.81
2017-08-26T12:15:22.129Z,71.81
2017-08-26T12:17:49.313Z,71.80
2017-08-26T12:20:16.918Z,71.74
2017-08-26T12:22:44.095Z,72.00
2017-08-26T12:25:11.348Z,72.20
2017-08-26T12:27:39.108Z,72.08
2017-08-26T12:30:06.558Z,72.12
2017-08-26T12:32:34.349Z,72.15
2017-08-26T12:35:02.475Z,72.19
2017-08-26T12:37:30.564Z,72.23
2017-08-26T12:39:57.778Z,72.24
2017-08-26T12:42:24.970Z,72.21
2017-08-26T12:44:52.237Z,72.24
2017-08-26T12:47:19.442Z,72.22
2017-08-26T12:49:52.403Z,72.19
2017-08-26T12:52:21.858Z,72.16
2017-08-26T12:54:51.333Z,72.12
2017-08-26T12:57:20.882Z,72.08
2017-08-26T12:59:48.774Z,72.04
2017-08-26T13:02:15.956Z,71.99
2017-08-26T13:04:43.569Z,72.19
2017-08-26T13:07:10.741Z,72.44
2017-08-26T13:09:38.370Z,72.36
2017-08-26T13:12:05.974Z,72.56
2017-08-26T13:14:33.172Z,72.70
2017-08-26T13:17:00.346Z,72.81
2017-08-26T13:19:27.767Z,72.88
2017-08-26T13:21:54.981Z,72.95
2017-08-26T13:24:22.157Z,73.15
2017-08-26T13:26:49.325Z,73.24
2017-08-26T13:29:16.913Z,73.31
2017-08-26T13:31:44.125Z,73.34
2017-08-26T13:34:11.505Z,73.54
2017-08-26T13:36:38.687Z,73.60
2017-08-26T13:39:06.442Z,73.76
2017-08-26T13:41:34.405Z,73.75
2017-08-26T13:44:01.574Z,73.79
2017-08-26T13:46:28.745Z,73.79
2017-08-26T13:48:55.949Z,73.82
2017-08-26T13:51:23.121Z,73.83
2017-08-26T13:53:50.635Z,73.77
2017-08-26T13:56:17.845Z,73.69
2017-08-26T13:58:45.222Z,73.61
2017-08-26T14:01:12.388Z,73.52
2017-08-26T14:03:39.581Z,73.47
2017-08-26T14:06:07.127Z,73.41
2017-08-26T14:08:34.694Z,73.27
2017-08-26T14:11:01.934Z,73.16
2017-08-26T14:13:29.204Z,73.15
2017-08-26T14:15:56.390Z,73.09
2017-08-26T14:18:23.562Z,73.13
2017-08-26T14:20:52.056Z,73.06
2017-08-26T14:23:19.746Z,73.09
2017-08-26T14:25:46.929Z,73.11
2017-08-26T14:28:14.131Z,73.18
2017-08-26T14:30:41.496Z,73.21
2017-08-26T14:33:08.665Z,73.24
2017-08-26T14:35:35.837Z,73.29
2017-08-26T14:38:03.268Z,73.30
2017-08-26T14:40:30.823Z,73.31
2017-08-26T14:42:59.813Z,73.32
2017-08-26T14:45:27.160Z,73.31
2017-08-26T14:47:54.802Z,73.33
2017-08-26T14:50:21.992Z,73.30
2017-08-26T14:52:49.162Z,73.29
2017-08-26T14:55:16.335Z,73.28
2017-08-26T14:57:43.746Z,73.26
2017-08-26T15:00:11.489Z,73.22
2017-08-26T15:02:38.747Z,73.23
2017-08-26T15:05:05.932Z,73.22
2017-08-26T15:07:33.116Z,73.23
2017-08-26T15:10:00.497Z,73.22
2017-08-26T15:12:27.666Z,73.19
2017-08-26T15:14:55.431Z,73.20
2017-08-26T15:17:22.878Z,73.14
2017-08-26T15:19:50.049Z,73.20
2017-08-26T15:22:17.220Z,73.27
2017-08-26T15:24:44.952Z,73.32
2017-08-26T15:27:12.406Z,73.35
2017-08-26T15:29:39.576Z,73.36
2017-08-26T15:32:07.242Z,73.43
2017-08-26T15:34:34.780Z,73.44
2017-08-26T15:37:02.028Z,73.41
2017-08-26T15:39:29.573Z,73.42
2017-08-26T15:41:56.836Z,73.44
2017-08-26T15:44:24.009Z,73.41
2017-08-26T15:46:51.195Z,73.34
2017-08-26T15:49:18.380Z,73.28
2017-08-26T15:51:45.746Z,73.27
2017-08-26T15:54:12.921Z,73.26
2017-08-26T15:56:40.357Z,73.16
2017-08-26T15:59:07.547Z,73.15
2017-08-26T16:01:35.154Z,73.09
2017-08-26T16:04:02.425Z,73.09
2017-08-26T16:06:30.190Z,73.03
2017-08-26T16:08:57.636Z,73.01
2017-08-26T16:11:24.825Z,72.94
2017-08-26T16:13:52.442Z,72.90
2017-08-26T16:16:19.632Z,72.86
2017-08-26T16:18:46.902Z,72.84
2017-08-26T16:21:14.496Z,72.83
2017-08-26T16:23:41.773Z,72.81
2017-08-26T16:26:09.223Z,72.79
2017-08-26T16:28:36.799Z,72.78
2017-08-26T16:31:04.315Z,72.68
2017-08-26T16:33:31.596Z,72.69
2017-08-26T16:35:59.128Z,72.65
2017-08-26T16:38:26.721Z,72.62
2017-08-26T16:40:53.969Z,72.60
2017-08-26T16:43:21.137Z,72.57
2017-08-26T16:45:48.315Z,72.58
2017-08-26T16:48:15.725Z,72.59
2017-08-26T16:50:42.926Z,72.56
2017-08-26T16:53:10.112Z,72.58
2017-08-26T16:55:37.699Z,72.54
2017-08-26T16:58:04.869Z,72.52
2017-08-26T17:00:32.278Z,72.51
2017-08-26T17:02:59.620Z,72.49
2017-08-26T17:05:27.002Z,72.50
2017-08-26T17:07:54.187Z,72.47
2017-08-26T17:10:21.825Z,72.43
2017-08-26T17:12:49.068Z,72.42
2017-08-26T17:15:16.610Z,72.40
2017-08-26T17:17:43.790Z,72.41
2017-08-26T17:20:11.197Z,72.37
2017-08-26T17:22:38.368Z,72.35
2017-08-26T17:25:05.538Z,72.28
2017-08-26T17:27:32.889Z,72.26
2017-08-26T17:30:00.349Z,72.29
2017-08-26T17:32:27.908Z,72.24
2017-08-26T17:34:55.260Z,72.23
2017-08-26T17:37:22.716Z,72.24
2017-08-26T17:39:50.176Z,72.23
2017-08-26T17:42:17.360Z,72.23
2017-08-26T17:44:44.993Z,72.25
2017-08-26T17:47:12.714Z,72.26
2017-08-26T17:49:40.005Z,72.22
2017-08-26T17:52:07.192Z,72.23
2017-08-26T17:54:34.691Z,72.22
2017-08-26T17:57:01.853Z,72.18
2017-08-26T17:59:29.018Z,72.15
2017-08-26T18:01:56.569Z,72.13
2017-08-26T18:04:23.844Z,72.11
2017-08-26T18:06:51.021Z,72.10
2017-08-26T18:09:18.747Z,72.08
2017-08-26T18:11:45.913Z,72.07
2017-08-26T18:14:13.457Z,72.08
2017-08-26T18:16:41.000Z,72.05
2017-08-26T18:19:08.577Z,72.05
2017-08-26T18:21:36.011Z,72.05
2017-08-26T18:24:03.796Z,72.05
2017-08-26T18:26:31.033Z,72.03
2017-08-26T18:28:58.197Z,72.02
2017-08-26T18:31:25.385Z,72.02
2017-08-26T18:33:52.698Z,72.01
2017-08-26T18:36:20.216Z,72.00
2017-08-26T18:38:47.612Z,72.00
2017-08-26T18:41:15.075Z,71.99
2017-08-26T18:43:42.241Z,71.98
2017-08-26T18:46:09.676Z,71.98
2017-08-26T18:48:37.138Z,71.97
2017-08-26T18:51:04.646Z,71.96
2017-08-26T18:53:31.850Z,71.96
2017-08-26T18:55:59.196Z,71.94
2017-08-26T18:58:26.366Z,71.94
2017-08-26T19:00:53.542Z,71.95
2017-08-26T19:03:20.718Z,71.93
2017-08-26T19:05:47.881Z,71.92
2017-08-26T19:08:15.054Z,71.96
2017-08-26T19:10:42.585Z,71.97
2017-08-26T19:13:10.176Z,72.07
2017-08-26T19:15:37.350Z,72.18
2017-08-26T19:18:04.776Z,72.20
2017-08-26T19:20:31.988Z,72.19
2017-08-26T19:22:59.501Z,72.17
2017-08-26T19:25:26.666Z,72.14
2017-08-26T19:27:54.088Z,72.10
2017-08-26T19:30:21.258Z,72.07
2017-08-26T19:32:48.672Z,72.01
2017-08-26T19:35:16.056Z,71.98
2017-08-26T19:37:43.506Z,71.96
2017-08-26T19:40:10.692Z,71.94
2017-08-26T19:42:38.193Z,71.94
2017-08-26T19:45:05.760Z,71.93
2017-08-26T19:47:33.032Z,71.93
2017-08-26T19:50:00.518Z,71.93
2017-08-26T19:52:27.950Z,71.90
2017-08-26T19:54:55.118Z,71.90
2017-08-26T19:57:22.647Z,71.92
2017-08-26T19:59:49.812Z,71.92
2017-08-26T20:02:17.164Z,71.92
2017-08-26T20:04:44.676Z,71.92
2017-08-26T20:07:12.219Z,71.93
2017-08-26T20:09:39.541Z,71.90
2017-08-26T20:12:07.051Z,71.89
2017-08-26T20:14:34.248Z,71.89
2017-08-26T20:17:01.595Z,71.88
2017-08-26T20:19:29.057Z,71.88
2017-08-26T20:21:56.240Z,71.89
2017-08-26T20:24:23.664Z,71.90
2017-08-26T20:26:51.185Z,71.92
2017-08-26T20:29:18.576Z,71.93
2017-08-26T20:31:46.218Z,71.92
2017-08-26T20:34:13.807Z,71.92
2017-08-26T20:36:41.015Z,71.93
2017-08-26T20:39:08.409Z,71.93
2017-08-26T20:41:35.912Z,71.92
2017-08-26T20:44:03.436Z,71.95
2017-08-26T20:46:30.678Z,71.93
2017-08-26T20:48:57.927Z,71.95
2017-08-26T20:51:25.102Z,71.92
2017-08-26T20:53:52.537Z,71.92
2017-08-26T20:56:19.776Z,71.94
2017-08-26T20:58:47.039Z,71.93
2017-08-26T21:01:14.231Z,71.92
2017-08-26T21:03:41.421Z,71.92
2017-08-26T21:06:08.901Z,71.90
2017-08-26T21:08:36.411Z,71.90
2017-08-26T21:13:45.103Z,71.92
2017-08-26T21:16:12.612Z,71.90
2017-08-26T21:18:39.785Z,71.90
2017-08-26T21:21:06.972Z,71.89
2017-08-26T21:23:34.148Z,71.88
2017-08-26T21:26:01.557Z,71.88
2017-08-26T21:28:29.100Z,71.87
2017-08-26T21:30:56.371Z,71.88
2017-08-26T21:33:23.758Z,71.88
2017-08-26T21:35:51.052Z,71.86
2017-08-26T21:38:18.620Z,71.87
2017-08-26T21:40:45.789Z,71.87
2017-08-26T21:43:13.060Z,71.87
2017-08-26T21:45:40.701Z,71.85
2017-08-26T21:48:07.962Z,71.85
2017-08-26T21:50:35.130Z,71.87
2017-08-26T21:53:02.882Z,71.87
2017-08-26T21:55:30.050Z,71.85
2017-08-26T21:57:57.226Z,71.85
2017-08-26T22:00:24.402Z,71.84
2017-08-26T22:02:51.784Z,71.83
2017-08-26T22:05:19.440Z,71.85
2017-08-26T22:07:46.614Z,71.85
2017-08-26T22:10:13.792Z,71.84
2017-08-26T22:12:40.962Z,71.83
2017-08-26T22:15:08.180Z,71.84
2017-08-26T22:17:35.356Z,71.85
2017-08-26T22:20:02.530Z,71.87
2017-08-26T22:22:29.905Z,71.87
2017-08-26T22:24:57.088Z,71.85
2017-08-26T22:27:24.291Z,71.87
2017-08-26T22:29:51.461Z,71.85
2017-08-26T22:32:19.736Z,71.86
2017-08-26T22:34:46.908Z,71.86
2017-08-26T22:37:14.393Z,71.84
2017-08-26T22:39:41.558Z,71.89
2017-08-26T22:42:08.733Z,71.87
2017-08-26T22:44:37.164Z,71.88
2017-08-26T22:47:05.732Z,71.89
2017-08-26T22:49:35.208Z,71.87
2017-08-26T22:52:05.079Z,71.85
2017-08-26T22:54:36.428Z,71.83
2017-08-26T22:57:04.016Z,71.81
2017-08-26T22:59:31.204Z,71.80
2017-08-26T23:01:58.365Z,71.82
2017-08-26T23:04:25.892Z,71.82
2017-08-26T23:06:53.417Z,71.84
2017-08-26T23:09:21.436Z,71.84
2017-08-26T23:11:50.802Z,71.84
2017-08-26T23:14:20.165Z,71.84
2017-08-26T23:16:49.489Z,71.85
2017-08-26T23:19:19.308Z,71.87
2017-08-26T23:21:46.488Z,71.86
2017-08-26T23:24:16.148Z,71.85
2017-08-26T23:26:43.845Z,71.84
2017-08-26T23:29:11.065Z,71.80
2017-08-26T23:31:38.225Z,71.78
2017-08-26T23:34:05.567Z,71.78
2017-08-26T23:36:32.733Z,71.79
2017-08-26T23:38:59.926Z,71.83
2017-08-26T23:41:27.274Z,71.82
2017-08-26T23:43:54.739Z,71.79
2017-08-26T23:46:22.189Z,71.79
2017-08-26T23:48:49.645Z,71.79
2017-08-26T23:51:16.830Z,71.80
2017-08-26T23:53:44.365Z,71.83
2017-08-26T23:56:11.549Z,71.82
2017-08-26T23:58:38.861Z,71.83
